createdAt,value
2023-05-16T00:00:54.675Z,9.29
2023-05-16T00:05:59.619Z,9.25
2023-05-16T00:11:03.191Z,9.16
2023-05-16T00:16:07.142Z,9.13
2023-05-16T00:21:12.234Z,8.93
2023-05-16T00:26:15.749Z,8.77
2023-05-16T00:31:19.409Z,8.71
2023-05-16T00:36:24.306Z,8.74
2023-05-16T00:41:27.549Z,8.67
2023-05-16T00:46:31.026Z,8.52
2023-05-16T00:51:36.523Z,8.45
2023-05-16T00:56:40.079Z,8.44
2023-05-16T01:01:46.837Z,8.24
2023-05-16T01:06:52.195Z,8.43
2023-05-16T01:12:03.907Z,8.39
2023-05-16T01:17:16.145Z,8.42
2023-05-16T01:22:33.009Z,8.40
2023-05-16T01:27:41.014Z,8.38
2023-05-16T01:32:44.553Z,8.36
2023-05-16T01:37:59.241Z,8.47
2023-05-16T01:43:10.371Z,8.51
2023-05-16T01:48:19.384Z,8.60
2023-05-16T01:53:28.925Z,8.62
2023-05-16T01:58:35.455Z,8.60
2023-05-16T02:03:39.498Z,8.56
2023-05-16T02:08:43.106Z,8.51
2023-05-16T02:13:47.964Z,8.64
2023-05-16T02:18:51.260Z,8.82
2023-05-16T02:24:14.656Z,8.90
2023-05-16T02:29:20.110Z,9.23
2023-05-16T02:34:23.578Z,9.47
2023-05-16T02:39:26.997Z,9.76
2023-05-16T02:44:31.874Z,10.10
2023-05-16T02:49:35.100Z,10.32
2023-05-16T02:54:38.689Z,10.33
2023-05-16T02:59:43.742Z,10.53
2023-05-16T03:04:48.733Z,10.70
2023-05-16T03:09:52.619Z,10.91
2023-05-16T03:14:57.472Z,12.00
2023-05-16T03:20:00.642Z,12.94
2023-05-16T03:25:04.351Z,13.06
2023-05-16T03:30:11.031Z,13.06
2023-05-16T03:35:14.493Z,13.26
2023-05-16T03:40:18.294Z,13.58
2023-05-16T03:45:25.093Z,14.08
2023-05-16T03:50:28.897Z,15.01
2023-05-16T03:55:32.565Z,19.27
2023-05-16T04:00:37.962Z,22.48
2023-05-16T04:05:41.455Z,23.90
2023-05-16T04:10:44.978Z,24.92
2023-05-16T04:15:49.994Z,26.95
2023-05-16T04:20:53.477Z,27.77
2023-05-16T04:25:57.392Z,29.89
2023-05-16T04:31:03.283Z,30.43
2023-05-16T04:36:07.284Z,31.17
2023-05-16T04:41:10.706Z,31.13
2023-05-16T04:46:15.996Z,32.85
2023-05-16T04:51:19.701Z,33.39
2023-05-16T04:56:23.496Z,32.96
2023-05-16T05:01:28.393Z,34.24
2023-05-16T05:06:32.212Z,35.57
2023-05-16T05:11:35.753Z,37.21
2023-05-16T05:16:41.122Z,36.95
2023-05-16T05:21:44.918Z,36.28
2023-05-16T05:26:48.399Z,35.77
2023-05-16T05:31:53.404Z,36.18
2023-05-16T05:36:56.974Z,36.94
2023-05-16T05:42:00.571Z,38.96
2023-05-16T05:47:06.052Z,37.30
2023-05-16T05:52:09.542Z,37.33
2023-05-16T05:57:13.057Z,37.51
2023-05-16T06:02:18.075Z,38.45
2023-05-16T06:07:21.780Z,37.83
2023-05-16T06:12:25.344Z,37.12
2023-05-16T06:17:30.230Z,39.44
2023-05-16T06:22:33.772Z,37.48
2023-05-16T06:27:37.346Z,38.01
2023-05-16T06:32:42.293Z,40.36
2023-05-16T06:37:45.745Z,39.85
2023-05-16T06:42:49.254Z,38.12
2023-05-16T06:47:56.576Z,40.12
2023-05-16T06:53:00.854Z,39.72
2023-05-16T06:58:04.468Z,38.30
2023-05-16T07:03:09.564Z,39.69
2023-05-16T07:08:13.233Z,39.14
2023-05-16T07:13:16.795Z,38.61
2023-05-16T07:18:21.780Z,38.28
2023-05-16T07:23:25.484Z,37.15
2023-05-16T07:28:29.064Z,37.39
2023-05-16T07:33:34.108Z,38.46
2023-05-16T07:38:37.812Z,38.88
2023-05-16T07:43:44.143Z,40.98
2023-05-16T07:48:49.116Z,39.00
2023-05-16T07:53:53.124Z,37.15
2023-05-16T07:58:56.811Z,34.19
2023-05-16T08:04:02.000Z,33.83
2023-05-16T08:09:06.131Z,32.67
2023-05-16T08:14:09.944Z,33.67
2023-05-16T08:19:14.881Z,33.50
2023-05-16T08:24:18.664Z,31.17
2023-05-16T08:29:22.236Z,29.92
2023-05-16T08:34:27.419Z,29.06
2023-05-16T08:39:31.587Z,27.06
2023-05-16T08:44:36.290Z,27.13
2023-05-16T08:49:42.755Z,26.01
2023-05-16T08:54:55.305Z,26.70
2023-05-16T09:00:13.152Z,26.41
2023-05-16T09:05:19.149Z,26.07
2023-05-16T09:10:22.887Z,25.40
2023-05-16T09:15:32.558Z,24.52
2023-05-16T09:20:41.468Z,24.83
2023-05-16T09:25:45.920Z,24.52
2023-05-16T09:30:50.183Z,23.99
2023-05-16T09:35:59.442Z,23.57
2023-05-16T09:41:03.952Z,23.65
2023-05-16T09:46:07.716Z,23.44
2023-05-16T09:51:14.171Z,22.83
2023-05-16T09:56:18.336Z,23.21
2023-05-16T10:01:22.215Z,23.47
2023-05-16T10:06:27.861Z,22.99
2023-05-16T10:11:31.974Z,23.15
2023-05-16T10:16:35.861Z,22.75
2023-05-16T10:21:42.162Z,23.18
2023-05-16T10:26:45.945Z,22.99
2023-05-16T10:31:50.998Z,22.43
2023-05-16T10:36:56.753Z,22.05
2023-05-16T10:42:00.848Z,22.17
2023-05-16T10:47:05.592Z,22.10
2023-05-16T10:52:11.217Z,21.89
2023-05-16T10:57:21.061Z,21.97
2023-05-16T11:02:27.757Z,22.19
2023-05-16T11:07:35.394Z,22.01
2023-05-16T11:12:44.231Z,21.63
2023-05-16T11:17:48.114Z,21.69
2023-05-16T11:22:53.206Z,22.13
2023-05-16T11:27:56.795Z,21.92
2023-05-16T11:33:00.388Z,22.26
2023-05-16T11:38:05.766Z,22.08
2023-05-16T11:43:09.422Z,21.82
2023-05-16T11:48:21.826Z,21.54
2023-05-16T11:53:33.966Z,21.52
2023-05-16T11:58:38.583Z,21.78
2023-05-16T12:03:42.272Z,21.81
2023-05-16T12:08:52.899Z,22.02
2023-05-16T12:13:56.762Z,21.85
2023-05-16T12:19:01.963Z,21.34
2023-05-16T12:24:10.704Z,21.56
2023-05-16T12:29:15.004Z,21.78
2023-05-16T12:34:21.551Z,21.46
2023-05-16T12:39:26.561Z,21.37
2023-05-16T12:44:31.766Z,21.51
2023-05-16T12:49:35.361Z,21.51
2023-05-16T12:54:40.306Z,21.21
2023-05-16T12:59:43.854Z,21.27
2023-05-16T13:04:47.720Z,21.21
2023-05-16T13:09:52.766Z,21.31
2023-05-16T13:14:56.290Z,21.46
2023-05-16T13:19:59.832Z,21.47
2023-05-16T13:25:06.454Z,21.16
2023-05-16T13:30:12.010Z,21.19
2023-05-16T13:35:16.207Z,21.00
2023-05-16T13:40:20.910Z,21.23
2023-05-16T13:45:24.543Z,21.15
2023-05-16T13:50:33.411Z,21.28
2023-05-16T13:55:38.869Z,21.47
2023-05-16T14:00:45.695Z,21.29
2023-05-16T14:05:49.897Z,21.40
2023-05-16T14:10:54.889Z,21.08
2023-05-16T14:15:58.716Z,21.23
2023-05-16T14:21:02.535Z,20.92
2023-05-16T14:26:07.950Z,20.65
2023-05-16T14:31:11.859Z,20.62
2023-05-16T14:36:15.615Z,20.72
2023-05-16T14:41:21.163Z,20.76
2023-05-16T14:46:24.871Z,20.61
2023-05-16T14:51:28.490Z,20.51
2023-05-16T14:56:33.794Z,20.53
2023-05-16T15:01:37.466Z,20.34
2023-05-16T15:06:41.223Z,20.35
2023-05-16T15:11:46.485Z,20.30
2023-05-16T15:16:50.027Z,20.33
2023-05-16T15:21:53.599Z,20.08
2023-05-16T15:26:58.620Z,20.20
2023-05-16T15:32:06.082Z,20.05
2023-05-16T15:37:09.778Z,20.05
2023-05-16T15:42:14.799Z,19.83
2023-05-16T15:47:18.337Z,19.79
2023-05-16T15:52:22.913Z,19.69
2023-05-16T15:57:28.094Z,19.72
2023-05-16T16:02:31.784Z,19.73
2023-05-16T16:07:35.413Z,19.67
2023-05-16T16:12:40.971Z,19.60
2023-05-16T16:17:44.853Z,19.53
2023-05-16T16:22:48.608Z,19.39
2023-05-16T16:27:53.831Z,19.11
2023-05-16T16:32:57.423Z,19.06
2023-05-16T16:38:06.641Z,19.01
2023-05-16T16:43:12.496Z,18.76
2023-05-16T16:48:16.623Z,18.72
2023-05-16T16:53:20.156Z,18.53
2023-05-16T16:58:25.194Z,18.43
2023-05-16T17:03:28.934Z,18.24
2023-05-16T17:08:32.639Z,18.01
2023-05-16T17:13:37.842Z,17.98
2023-05-16T17:18:43.025Z,17.87
2023-05-16T17:23:46.757Z,17.72
2023-05-16T17:28:52.109Z,17.51
2023-05-16T17:33:55.761Z,17.50
2023-05-16T17:38:59.898Z,17.38
2023-05-16T17:44:06.995Z,17.18
2023-05-16T17:49:11.817Z,17.00
2023-05-16T17:54:16.281Z,16.87
2023-05-16T17:59:21.371Z,16.72
2023-05-16T18:04:25.267Z,16.57
2023-05-16T18:09:28.873Z,16.51
2023-05-16T18:14:33.966Z,16.41
2023-05-16T18:19:37.652Z,16.30
2023-05-16T18:24:41.320Z,16.28
2023-05-16T18:29:46.390Z,16.25
2023-05-16T18:34:50.415Z,16.08
2023-05-16T18:39:54.107Z,16.08
2023-05-16T18:44:59.366Z,16.05
2023-05-16T18:50:03.022Z,15.98
2023-05-16T18:55:08.911Z,15.94
2023-05-16T19:00:15.012Z,15.85
2023-05-16T19:05:19.872Z,15.78
2023-05-16T19:10:25.330Z,15.68
2023-05-16T19:15:30.452Z,15.66
2023-05-16T19:20:35.902Z,15.62
2023-05-16T19:25:45.738Z,15.61
2023-05-16T19:30:50.747Z,15.62
2023-05-16T19:35:54.748Z,15.59
2023-05-16T19:40:58.284Z,15.55
2023-05-16T19:46:03.477Z,15.45
2023-05-16T19:51:07.058Z,15.22
2023-05-16T19:56:11.037Z,15.17
2023-05-16T20:01:16.155Z,15.06
2023-05-16T20:06:19.658Z,14.87
2023-05-16T20:11:23.163Z,14.68
2023-05-16T20:16:28.337Z,14.52
2023-05-16T20:21:31.927Z,14.30
2023-05-16T20:26:35.561Z,14.18
2023-05-16T20:31:42.798Z,14.09
2023-05-16T20:36:46.368Z,13.96
2023-05-16T20:41:49.892Z,13.72
2023-05-16T20:46:55.044Z,13.74
2023-05-16T20:51:58.578Z,13.59
2023-05-16T20:57:02.787Z,13.46
2023-05-16T21:02:10.225Z,13.25
2023-05-16T21:07:13.789Z,13.19
2023-05-16T21:12:17.441Z,13.08
2023-05-16T21:17:22.508Z,13.01
2023-05-16T21:22:26.155Z,12.97
2023-05-16T21:27:29.770Z,12.90
2023-05-16T21:32:34.766Z,12.82
2023-05-16T21:37:38.332Z,12.67
2023-05-16T21:42:41.814Z,12.54
2023-05-16T21:47:47.998Z,12.42
2023-05-16T21:52:51.616Z,12.38
2023-05-16T21:57:55.149Z,12.27
2023-05-16T22:03:00.269Z,12.21
2023-05-16T22:08:03.941Z,12.09
2023-05-16T22:13:08.217Z,12.01
2023-05-16T22:18:13.282Z,11.91
2023-05-16T22:23:17.077Z,11.92
2023-05-16T22:28:20.965Z,11.80
2023-05-16T22:33:26.329Z,11.75
2023-05-16T22:38:30.026Z,11.64
2023-05-16T22:43:33.527Z,11.55
2023-05-16T22:48:38.798Z,11.45
2023-05-16T22:53:42.336Z,11.44
2023-05-16T22:58:45.834Z,11.41
2023-05-16T23:03:51.074Z,11.39
2023-05-16T23:08:54.679Z,11.30
2023-05-16T23:13:58.242Z,11.29
2023-05-16T23:19:03.273Z,11.25
2023-05-16T23:24:07.313Z,11.21
2023-05-16T23:29:10.958Z,11.18
2023-05-16T23:34:15.984Z,11.07
2023-05-16T23:39:21.545Z,11.12
2023-05-16T23:44:25.252Z,11.06
2023-05-16T23:49:30.383Z,10.99
2023-05-16T23:54:34.193Z,10.84
2023-05-16T23:59:37.886Z,10.78
